Terminal Aerodrome Forecast
Issued by NWS

Home | Current Version | Previous Version | Text Only | Print | Product List | Glossary On
Versions: 1 2 3 4 5 6 7 8 9 10 11 12 13 14 15 16 17 18 19 20 21 22 23 24 25 26 27
000
FTUS42 KJAX 261743
TAFVQQ
TAF
KVQQ 261743Z 2618/2718 00000KT P6SM VCSH SCT040 BKN060
     FM270200 21007KT P6SM SCT030 BKN120
     FM270700 21009KT P6SM VCSH SCT005 BKN012
     FM271200 21006KT 5SM SHRA BR BKN006 OVC015
     FM271600 25010G16KT P6SM BKN035=

USA.gov is the U.S. government's official web portal to all federal, state and local government web resources and services.